Time;durP1;ratioP1;P1;durP2;ratioP2;P2;SDS_P1;SDS_P2;PMS_P1;PMS_P2;Temp;Humidity;BMP_temperature;BMP_pressure;BME280_temperature;BME280_humidity;BME280_pressure;Samples;Min_cycle;Max_cycle;Signal;HPM_P1;HPM_P2
2022/04/11 00:00:10;;;;;;;2.00;1.20;;;5.30;1.00;;;;;;5116373;28;20415;-58
2022/04/11 00:02:37;;;;;;;1.80;1.20;;;5.20;1.00;;;;;;5115093;28;20515;-57
2022/04/11 00:05:05;;;;;;;2.58;1.20;;;5.20;1.00;;;;;;5102682;28;20473;-59
2022/04/11 00:07:31;;;;;;;4.13;1.20;;;5.20;1.00;;;;;;5116512;28;20511;-59
2022/04/11 00:09:58;;;;;;;1.70;1.10;;;5.20;1.00;;;;;;5114685;28;20495;-59
2022/04/11 00:12:28;;;;;;;2.88;1.20;;;5.30;1.00;;;;;;5114325;28;20463;-59
2022/04/11 00:14:58;;;;;;;2.30;1.10;;;5.20;1.00;;;;;;5115271;28;20464;-59
2022/04/11 00:17:25;;;;;;;1.77;1.10;;;5.30;1.00;;;;;;5116093;28;20427;-58
2022/04/11 00:19:51;;;;;;;2.15;1.45;;;5.30;1.00;;;;;;5115139;28;20482;-59
2022/04/11 00:22:18;;;;;;;2.20;1.10;;;5.30;1.00;;;;;;5114621;28;20436;-58
2022/04/11 00:24:45;;;;;;;1.58;1.00;;;5.30;1.00;;;;;;5115365;28;20431;-58
2022/04/11 00:27:12;;;;;;;2.50;1.20;;;5.30;1.00;;;;;;5115900;28;20882;-59
2022/04/11 00:29:40;;;;;;;2.28;1.20;;;5.30;1.00;;;;;;5114706;28;20531;-59
2022/04/11 00:32:08;;;;;;;2.20;1.30;;;5.30;1.00;;;;;;5115043;28;20522;-58
2022/04/11 00:34:35;;;;;;;2.80;1.30;;;5.20;1.00;;;;;;5115888;28;20447;-58
2022/04/11 00:37:02;;;;;;;2.38;1.38;;;5.20;1.00;;;;;;5114770;28;20412;-59
2022/04/11 00:39:29;;;;;;;1.70;1.20;;;5.20;1.00;;;;;;5116077;28;20419;-58
2022/04/11 00:41:55;;;;;;;1.65;1.30;;;5.10;1.00;;;;;;5113688;28;20851;-58
2022/04/11 00:44:22;;;;;;;3.17;1.33;;;5.00;1.00;;;;;;5115932;28;20432;-58
2022/04/11 00:46:50;;;;;;;2.72;1.40;;;5.00;1.00;;;;;;5115036;28;20511;-58
2022/04/11 00:49:18;;;;;;;1.98;1.38;;;5.00;1.00;;;;;;5115037;28;20932;-59
2022/04/11 00:51:45;;;;;;;2.40;1.40;;;5.00;1.00;;;;;;5114838;28;20527;-58
2022/04/11 00:54:12;;;;;;;2.35;1.20;;;5.00;1.00;;;;;;5116206;28;20423;-59
2022/04/11 00:56:39;;;;;;;1.90;1.30;;;5.00;1.00;;;;;;5114439;28;20464;-63
2022/04/11 00:59:06;;;;;;;1.73;1.40;;;5.00;1.00;;;;;;5115995;28;20906;-59
2022/04/11 01:01:33;;;;;;;1.90;1.58;;;5.00;1.00;;;;;;5114108;28;20432;-59
2022/04/11 01:04:03;;;;;;;2.00;1.50;;;5.00;1.00;;;;;;5115603;28;20487;-58
2022/04/11 01:06:30;;;;;;;2.60;1.40;;;4.90;1.00;;;;;;5114048;28;20510;-59
2022/04/11 01:08:58;;;;;;;3.70;2.38;;;4.70;1.00;;;;;;5116032;28;20462;-58
2022/04/11 01:11:25;;;;;;;2.45;1.63;;;4.60;1.00;;;;;;5115693;28;20515;-58
2022/04/11 01:13:51;;;;;;;2.20;1.40;;;4.60;1.00;;;;;;5113741;28;20470;-58
2022/04/11 01:16:28;;;;;;;2.33;1.50;;;4.60;1.00;;;;;;5094969;28;20500;-58
2022/04/11 01:18:55;;;;;;;2.70;1.50;;;4.70;1.00;;;;;;5092946;28;20721;-58
2022/04/11 01:21:27;;;;;;;3.33;1.30;;;4.80;1.00;;;;;;5108808;28;20519;-58
2022/04/11 01:23:54;;;;;;;2.85;1.67;;;4.80;1.00;;;;;;5110412;28;20478;-58
2022/04/11 01:26:23;;;;;;;2.20;1.52;;;4.90;1.00;;;;;;5113131;28;20436;-58
2022/04/11 01:28:50;;;;;;;1.75;1.40;;;4.90;1.00;;;;;;5116031;28;20436;-58
2022/04/11 01:31:17;;;;;;;2.60;1.70;;;5.00;1.00;;;;;;5116756;28;20428;-58
2022/04/11 01:33:44;;;;;;;3.40;1.55;;;4.90;1.00;;;;;;5116260;28;20837;-59
2022/04/11 01:36:11;;;;;;;2.40;1.40;;;4.80;1.00;;;;;;5118192;28;20485;-59
2022/04/11 01:38:39;;;;;;;2.83;1.60;;;4.90;1.00;;;;;;5117020;28;20420;-59
2022/04/11 01:41:06;;;;;;;4.13;1.73;;;4.90;1.00;;;;;;5117848;28;20886;-58
2022/04/11 01:43:33;;;;;;;2.80;1.40;;;4.90;1.00;;;;;;5117391;28;20947;-59
2022/04/11 01:46:00;;;;;;;2.33;1.40;;;4.90;1.00;;;;;;5118493;28;20463;-58
2022/04/11 01:48:26;;;;;;;2.70;1.83;;;4.80;1.00;;;;;;5118025;28;20471;-58
2022/04/11 01:50:53;;;;;;;2.60;1.50;;;4.80;1.00;;;;;;5117556;28;20902;-58
2022/04/11 01:53:21;;;;;;;3.08;1.83;;;4.80;1.00;;;;;;5119081;28;20507;-58
2022/04/11 01:55:49;;;;;;;2.53;1.70;;;4.80;1.00;;;;;;5117536;28;20530;-59
2022/04/11 01:58:16;;;;;;;2.35;1.52;;;4.80;1.00;;;;;;5118876;28;20499;-59
2022/04/11 02:00:43;;;;;;;3.10;1.80;;;4.90;1.00;;;;;;5116799;28;20438;-58
2022/04/11 02:03:12;;;;;;;3.08;1.60;;;4.80;1.00;;;;;;5119399;28;20469;-59
2022/04/11 02:05:40;;;;;;;3.10;1.50;;;4.80;1.00;;;;;;5116659;28;20471;-59
2022/04/11 02:08:10;;;;;;;3.20;1.50;;;4.80;1.00;;;;;;5118813;28;20511;-58
2022/04/11 02:10:37;;;;;;;2.75;1.80;;;4.80;1.00;;;;;;5117646;28;20739;-58
2022/04/11 02:13:06;;;;;;;2.50;1.60;;;4.80;1.00;;;;;;5118691;28;20503;-58
2022/04/11 02:15:34;;;;;;;3.13;1.90;;;4.90;1.00;;;;;;5119033;28;20781;-58
2022/04/11 02:18:01;;;;;;;3.20;1.80;;;4.80;1.00;;;;;;5116439;28;20419;-58
2022/04/11 02:20:28;;;;;;;3.22;1.85;;;4.70;1.00;;;;;;5118567;28;20894;-59
2022/04/11 02:22:57;;;;;;;3.97;2.03;;;4.70;1.00;;;;;;5118600;28;20460;-58
2022/04/11 02:25:25;;;;;;;3.10;1.90;;;4.60;1.00;;;;;;5116470;28;20436;-58
2022/04/11 02:27:54;;;;;;;2.90;1.90;;;4.60;1.00;;;;;;5117849;28;20467;-58
2022/04/11 02:30:23;;;;;;;3.40;1.55;;;4.60;1.00;;;;;;5118851;28;20496;-58
2022/04/11 02:32:51;;;;;;;2.60;1.80;;;4.70;1.00;;;;;;5117182;28;20792;-57
2022/04/11 02:35:18;;;;;;;2.08;1.60;;;4.70;1.00;;;;;;5118522;28;20460;-58
2022/04/11 02:37:45;;;;;;;1.90;1.60;;;4.70;1.00;;;;;;5116778;28;20751;-58
2022/04/11 02:40:13;;;;;;;2.20;1.73;;;4.90;1.00;;;;;;5118045;28;20723;-59
2022/04/11 02:42:42;;;;;;;3.70;2.05;;;4.80;1.00;;;;;;5115786;28;20506;-59
2022/04/11 02:45:09;;;;;;;2.78;1.67;;;4.70;1.00;;;;;;5117252;28;20518;-59
2022/04/11 02:47:38;;;;;;;3.80;2.15;;;4.70;1.00;;;;;;5115374;27;20518;-59
2022/04/11 02:50:06;;;;;;;3.78;2.00;;;4.60;1.00;;;;;;5116678;28;20520;-59
2022/04/11 02:52:33;;;;;;;3.30;2.33;;;4.60;1.00;;;;;;5115611;28;20516;-59
2022/04/11 02:55:00;;;;;;;2.00;1.50;;;4.60;1.00;;;;;;5114728;28;20860;-59
2022/04/11 02:57:29;;;;;;;2.83;1.45;;;4.60;1.00;;;;;;5116424;28;20416;-58
2022/04/11 02:59:56;;;;;;;3.95;1.80;;;4.70;1.00;;;;;;5116480;28;20840;-58
2022/04/11 03:02:23;;;;;;;3.47;1.67;;;4.60;1.00;;;;;;5115525;28;20512;-59
2022/04/11 03:04:51;;;;;;;4.03;1.93;;;4.60;1.00;;;;;;5115688;28;20439;-58
2022/04/11 03:07:18;;;;;;;2.83;1.70;;;4.70;1.00;;;;;;5117701;28;20874;-59
2022/04/11 03:09:45;;;;;;;3.40;1.90;;;4.70;1.00;;;;;;5117590;28;20442;-58
2022/04/11 03:12:12;;;;;;;2.20;1.50;;;4.70;1.00;;;;;;5116803;28;20518;-59
2022/04/11 03:14:39;;;;;;;3.90;1.50;;;4.80;1.00;;;;;;5116028;28;20923;-59
2022/04/11 03:17:06;;;;;;;1.88;1.52;;;4.90;1.00;;;;;;5118035;28;20499;-59
2022/04/11 03:19:33;;;;;;;2.05;1.65;;;4.90;1.00;;;;;;5117719;28;20508;-59
2022/04/11 03:22:01;;;;;;;2.20;1.80;;;4.90;1.00;;;;;;5116474;28;20428;-58
2022/04/11 03:24:28;;;;;;;2.40;1.63;;;4.80;1.00;;;;;;5116079;28;20779;-58
2022/04/11 03:26:54;;;;;;;3.05;2.00;;;4.70;1.00;;;;;;5116913;28;20430;-58
2022/04/11 03:29:21;;;;;;;2.42;1.73;;;4.70;1.00;;;;;;5118021;28;20408;-59
2022/04/11 03:31:48;;;;;;;3.70;1.60;;;4.70;1.00;;;;;;5114806;28;20428;-58
2022/04/11 03:34:15;;;;;;;2.88;1.70;;;4.70;1.00;;;;;;5117478;28;20451;-59
2022/04/11 03:36:42;;;;;;;2.83;1.70;;;4.70;1.00;;;;;;5117362;28;20454;-58
2022/04/11 03:39:11;;;;;;;2.90;1.70;;;4.80;1.00;;;;;;5116927;28;20412;-59
2022/04/11 03:41:38;;;;;;;2.83;1.50;;;4.80;1.00;;;;;;5112477;28;20443;-58
2022/04/11 03:44:05;;;;;;;2.40;2.10;;;4.70;1.00;;;;;;5117006;28;20559;-58
2022/04/11 03:46:32;;;;;;;3.90;2.00;;;4.80;1.00;;;;;;5115668;28;20518;-59
2022/04/11 03:48:59;;;;;;;2.60;1.98;;;4.90;1.00;;;;;;5116727;28;20484;-59
2022/04/11 03:51:26;;;;;;;3.45;2.20;;;4.90;1.00;;;;;;5112532;28;20432;-58
2022/04/11 03:53:53;;;;;;;2.90;1.88;;;4.90;1.00;;;;;;5116524;28;20430;-59
2022/04/11 03:56:21;;;;;;;3.20;2.47;;;4.90;1.00;;;;;;5117041;28;20508;-59
2022/04/11 03:58:48;;;;;;;4.45;1.80;;;4.90;1.00;;;;;;5114615;28;20765;-59
2022/04/11 04:01:15;;;;;;;3.67;1.98;;;4.90;1.00;;;;;;5115276;28;20435;-59
2022/04/11 04:03:42;;;;;;;2.50;1.65;;;4.80;1.00;;;;;;5116034;28;20520;-59
2022/04/11 04:06:09;;;;;;;3.30;2.05;;;4.80;1.00;;;;;;5114013;28;20843;-55
2022/04/11 04:08:36;;;;;;;3.40;2.80;;;4.90;1.00;;;;;;5112360;28;20637;-59
2022/04/11 04:11:03;;;;;;;4.40;2.60;;;4.90;1.00;;;;;;5113623;28;20438;-59
2022/04/11 04:13:34;;;;;;;3.45;2.30;;;4.90;1.00;;;;;;5114029;28;20489;-59
2022/04/11 04:16:01;;;;;;;2.17;1.80;;;4.90;1.00;;;;;;5114156;28;20504;-59
2022/04/11 04:18:28;;;;;;;2.58;1.75;;;5.00;1.00;;;;;;5112474;28;20483;-59
2022/04/11 04:20:54;;;;;;;3.20;2.00;;;5.10;1.00;;;;;;5113971;28;20859;-60
2022/04/11 04:23:21;;;;;;;2.75;1.60;;;5.10;1.00;;;;;;5115043;28;20541;-59
2022/04/11 04:25:48;;;;;;;2.10;1.70;;;5.10;1.00;;;;;;5115021;28;20502;-58
2022/04/11 04:28:17;;;;;;;2.33;2.10;;;5.00;1.00;;;;;;5113883;28;20534;-58
2022/04/11 04:30:45;;;;;;;2.00;1.50;;;4.90;1.00;;;;;;5113291;28;20848;-59
2022/04/11 04:33:13;;;;;;;5.10;1.90;;;4.70;1.00;;;;;;5115027;28;20432;-59
2022/04/11 04:35:40;;;;;;;3.20;1.90;;;4.60;1.00;;;;;;5113530;28;20430;-60
2022/04/11 04:38:08;;;;;;;3.10;2.10;;;4.50;1.00;;;;;;5113903;28;20546;-59
2022/04/11 04:40:35;;;;;;;4.32;2.20;;;4.50;1.00;;;;;;5114991;28;20420;-59
2022/04/11 04:43:01;;;;;;;2.70;1.90;;;4.50;1.00;;;;;;5112930;28;20472;-59
2022/04/11 04:45:29;;;;;;;4.55;1.70;;;4.50;1.00;;;;;;5112502;28;20466;-59
2022/04/11 04:47:57;;;;;;;3.00;2.10;;;4.40;1.00;;;;;;5115628;28;20514;-59
2022/04/11 04:50:24;;;;;;;3.80;2.08;;;4.50;1.00;;;;;;5114167;28;20526;-59
2022/04/11 04:52:50;;;;;;;2.17;1.70;;;4.50;1.00;;;;;;5112982;28;20468;-59
2022/04/11 04:55:17;;;;;;;2.20;1.60;;;4.50;1.00;;;;;;5113020;28;20471;-58
2022/04/11 04:57:44;;;;;;;2.30;1.92;;;4.60;1.00;;;;;;5120878;27;20485;-59
2022/04/11 05:00:12;;;;;;;2.80;1.88;;;4.60;1.00;;;;;;5118257;27;20457;-59
2022/04/11 05:02:39;;;;;;;3.50;1.80;;;4.60;1.00;;;;;;5132228;27;20421;-59
2022/04/11 05:05:10;;;;;;;3.13;1.75;;;4.60;1.00;;;;;;5133808;27;20526;-59
2022/04/11 05:07:37;;;;;;;4.32;2.50;;;4.60;1.00;;;;;;5113261;27;20460;-59
2022/04/11 05:10:05;;;;;;;3.15;1.98;;;4.40;1.00;;;;;;5112379;28;20916;-59
2022/04/11 05:12:39;;;;;;;4.90;2.83;;;4.40;1.00;;;;;;5111214;28;20852;-59
2022/04/11 05:15:07;;;;;;;3.00;2.07;;;4.30;1.00;;;;;;5109882;28;20424;-58
2022/04/11 05:17:34;;;;;;;2.20;2.00;;;4.30;1.00;;;;;;5111291;28;20434;-58
2022/04/11 05:20:01;;;;;;;3.13;2.17;;;4.10;1.00;;;;;;5111963;28;20511;-59
2022/04/11 05:22:29;;;;;;;3.50;2.22;;;4.20;1.00;;;;;;5112228;28;20511;-58
2022/04/11 05:24:56;;;;;;;3.70;2.30;;;4.30;1.00;;;;;;5110197;28;20870;-59
2022/04/11 05:27:23;;;;;;;3.60;2.60;;;4.40;1.00;;;;;;5113159;28;20740;-58
2022/04/11 05:29:49;;;;;;;3.63;2.30;;;4.50;1.00;;;;;;5113420;28;20440;-58
2022/04/11 05:32:17;;;;;;;2.65;1.90;;;4.40;1.00;;;;;;5108415;28;20441;-59
2022/04/11 05:34:44;;;;;;;3.30;2.30;;;4.50;1.00;;;;;;5113764;28;20499;-59
2022/04/11 05:37:12;;;;;;;3.80;1.90;;;4.60;1.00;;;;;;5094697;28;20432;-59
2022/04/11 05:39:40;;;;;;;4.53;2.40;;;4.70;1.00;;;;;;5093032;28;20832;-59
2022/04/11 05:42:08;;;;;;;2.47;2.00;;;4.80;1.00;;;;;;5091884;28;20429;-59
2022/04/11 05:44:35;;;;;;;4.10;2.40;;;4.90;1.00;;;;;;5092918;28;20433;-59
2022/04/11 05:47:02;;;;;;;3.35;2.10;;;5.00;1.00;;;;;;5106387;28;20528;-58
2022/04/11 05:49:29;;;;;;;4.20;2.47;;;4.90;1.00;;;;;;5120118;28;20450;-58
2022/04/11 05:51:55;;;;;;;4.95;2.58;;;4.90;1.00;;;;;;5132156;28;20501;-59
2022/04/11 05:54:22;;;;;;;3.55;2.40;;;5.00;1.00;;;;;;5126920;28;20436;-59
2022/04/11 05:56:52;;;;;;;2.92;2.53;;;4.90;1.00;;;;;;5092134;28;20421;-59
2022/04/11 05:59:19;;;;;;;2.90;2.47;;;4.90;1.00;;;;;;5087835;28;20422;-59
2022/04/11 06:01:46;;;;;;;3.13;2.20;;;4.90;1.00;;;;;;5106046;28;20959;-58
2022/04/11 06:04:13;;;;;;;3.53;2.53;;;4.90;1.00;;;;;;5108531;28;20412;-59
2022/04/11 06:06:40;;;;;;;4.80;4.25;;;4.90;1.00;;;;;;5106321;28;20432;-54
2022/04/11 06:09:07;;;;;;;8.05;6.40;;;4.80;1.00;;;;;;5109931;28;20495;-57
2022/04/11 06:11:33;;;;;;;4.97;3.75;;;4.90;1.00;;;;;;5108326;28;20531;-55
2022/04/11 06:14:02;;;;;;;4.88;3.40;;;5.00;1.00;;;;;;5113963;28;20803;-56
2022/04/11 06:16:29;;;;;;;3.60;2.47;;;5.10;1.00;;;;;;5107205;28;20522;-56
2022/04/11 06:18:56;;;;;;;3.03;2.08;;;5.10;1.00;;;;;;5111911;28;20877;-55
2022/04/11 06:21:23;;;;;;;4.80;2.20;;;5.10;1.00;;;;;;5113122;28;20424;-54
2022/04/11 06:23:49;;;;;;;3.85;2.35;;;5.30;1.00;;;;;;5110554;28;20427;-56
2022/04/11 06:26:16;;;;;;;3.17;1.90;;;5.40;99.90;;;;;;5112493;28;20542;-53
2022/04/11 06:28:43;;;;;;;3.08;2.42;;;5.40;99.90;;;;;;5112812;28;20515;-56
2022/04/11 06:31:13;;;;;;;2.90;2.47;;;5.50;1.00;;;;;;5114202;28;20807;-56
2022/04/11 06:33:41;;;;;;;4.30;2.40;;;5.50;99.90;;;;;;5115051;28;20428;-55
2022/04/11 06:36:08;;;;;;;3.33;2.13;;;5.50;99.90;;;;;;5114220;28;20428;-56
2022/04/11 06:38:35;;;;;;;3.03;2.17;;;5.90;1.00;;;;;;5114100;28;20862;-54
2022/04/11 06:41:03;;;;;;;3.40;2.30;;;6.30;99.90;;;;;;5113706;28;20440;-57
2022/04/11 06:43:30;;;;;;;3.67;1.92;;;6.30;99.90;;;;;;5108613;28;20428;-55
2022/04/11 06:45:57;;;;;;;3.80;2.20;;;6.60;1.00;;;;;;5112435;28;20460;-56
2022/04/11 06:48:25;;;;;;;3.88;2.47;;;6.80;11.40;;;;;;5108351;28;20527;-56
2022/04/11 06:50:53;;;;;;;2.63;2.00;;;6.80;1.00;;;;;;5111285;28;20497;-57
2022/04/11 06:53:20;;;;;;;4.13;2.90;;;6.90;1.00;;;;;;5108622;28;20693;-56
2022/04/11 06:55:48;;;;;;;2.70;2.20;;;6.90;3.60;;;;;;5113063;28;20563;-57
2022/04/11 06:58:15;;;;;;;6.60;2.80;;;6.90;99.90;;;;;;5114802;28;20835;-57
2022/04/11 07:00:42;;;;;;;4.70;2.40;;;6.90;99.90;;;;;;5113220;28;20695;-57
2022/04/11 07:03:09;;;;;;;2.80;1.73;;;6.90;1.00;;;;;;5113414;28;20506;-54
2022/04/11 07:05:38;;;;;;;3.50;2.28;;;6.90;99.90;;;;;;5112180;28;20473;-57
2022/04/11 07:08:06;;;;;;;4.43;2.40;;;7.00;99.90;;;;;;5112632;28;20598;-57
2022/04/11 07:10:33;;;;;;;3.87;2.23;;;6.90;1.00;;;;;;5113685;28;20950;-56
2022/04/11 07:13:00;;;;;;;6.40;2.20;;;7.00;99.90;;;;;;5111757;28;20923;-54
2022/04/11 07:15:27;;;;;;;4.65;2.90;;;7.10;99.90;;;;;;5112661;28;20523;-55
2022/04/11 07:17:54;;;;;;;3.38;2.30;;;7.00;45.50;;;;;;5112090;28;20436;-56
2022/04/11 07:20:21;;;;;;;4.40;2.40;;;7.10;99.90;;;;;;5113594;28;20428;-59
2022/04/11 07:22:49;;;;;;;8.60;5.15;;;7.30;99.90;;;;;;5115877;28;20898;-60
2022/04/11 07:25:16;;;;;;;3.47;2.20;;;7.60;1.00;;;;;;5112575;28;20430;-51
2022/04/11 07:27:43;;;;;;;5.38;2.80;;;7.70;1.00;;;;;;5113221;28;20539;-53
2022/04/11 07:30:10;;;;;;;2.40;1.80;;;7.70;1.00;;;;;;5111940;28;20420;-49
2022/04/11 07:32:37;;;;;;;3.78;1.88;;;8.00;1.00;;;;;;5113383;28;20428;-50
2022/04/11 07:35:05;;;;;;;4.68;1.92;;;8.10;99.90;;;;;;5115958;28;20462;-50
2022/04/11 07:37:33;;;;;;;3.87;2.20;;;8.30;1.00;;;;;;5111389;28;20820;-50
2022/04/11 07:40:02;;;;;;;2.53;1.30;;;8.50;99.90;;;;;;5114352;28;20501;-51
2022/04/11 07:42:29;;;;;;;3.83;1.90;;;8.70;99.90;;;;;;5113054;28;20514;-50
2022/04/11 07:44:56;;;;;;;3.60;1.52;;;8.70;28.90;;;;;;5112295;28;20432;-48
2022/04/11 07:47:23;;;;;;;3.78;1.20;;;8.50;6.60;;;;;;5108350;28;20436;-48
2022/04/11 07:49:50;;;;;;;2.70;1.40;;;8.40;99.90;;;;;;5112182;28;20855;-51
2022/04/11 07:52:16;;;;;;;1.70;1.00;;;8.60;99.90;;;;;;5109934;28;20420;-52
2022/04/11 07:54:43;;;;;;;2.33;1.20;;;8.90;99.90;;;;;;5111022;28;20523;-53
2022/04/11 07:57:12;;;;;;;2.40;1.30;;;9.20;1.00;;;;;;5111962;28;20536;-54
2022/04/11 07:59:39;;;;;;;2.43;1.30;;;9.30;1.00;;;;;;5113709;28;20774;-48
2022/04/11 08:02:06;;;;;;;1.30;1.00;;;9.20;1.00;;;;;;5113052;28;20515;-48
2022/04/11 08:04:33;;;;;;;1.90;1.05;;;9.10;1.00;;;;;;5112507;28;20470;-52
2022/04/11 08:07:02;;;;;;;1.50;1.10;;;9.00;1.00;;;;;;5107268;28;20443;-50
2022/04/11 08:09:29;;;;;;;1.88;0.90;;;8.90;1.00;;;;;;5109502;28;20484;-52
2022/04/11 08:11:56;;;;;;;2.40;0.90;;;9.00;1.00;;;;;;5109812;28;20529;-55
2022/04/11 08:14:24;;;;;;;2.30;1.20;;;9.20;1.00;;;;;;5110884;28;20534;-48
2022/04/11 08:16:51;;;;;;;2.63;1.20;;;9.30;1.00;;;;;;5108505;28;20463;-53
2022/04/11 08:19:18;;;;;;;1.10;0.80;;;9.40;1.00;;;;;;5114073;28;20420;-52
2022/04/11 08:21:45;;;;;;;1.60;0.82;;;9.50;1.00;;;;;;5112513;28;20557;-50
2022/04/11 08:24:11;;;;;;;1.40;0.70;;;9.50;1.00;;;;;;5113901;28;20507;-50
2022/04/11 08:26:38;;;;;;;1.25;0.80;;;9.50;1.00;;;;;;5106128;28;20430;-49
2022/04/11 08:29:05;;;;;;;1.52;0.90;;;9.70;1.00;;;;;;5114375;28;20499;-53
2022/04/11 08:31:34;;;;;;;1.50;0.70;;;9.60;1.00;;;;;;5111813;28;20510;-50
2022/04/11 08:34:00;;;;;;;1.50;0.90;;;9.90;1.00;;;;;;5111302;28;20519;-51
2022/04/11 08:36:27;;;;;;;2.38;1.00;;;10.00;1.00;;;;;;5109391;28;20455;-51
2022/04/11 08:38:54;;;;;;;1.48;0.80;;;10.20;1.00;;;;;;5101155;28;20531;-51
2022/04/11 08:41:21;;;;;;;1.33;0.80;;;10.40;1.00;;;;;;5109488;28;20751;-48
2022/04/11 08:43:48;;;;;;;1.00;0.70;;;10.50;1.00;;;;;;5111513;28;20495;-47
2022/04/11 08:46:18;;;;;;;1.17;0.80;;;10.70;1.00;;;;;;5110999;28;20442;-51
2022/04/11 08:48:46;;;;;;;1.27;0.82;;;10.70;1.00;;;;;;5109360;28;20754;-47
2022/04/11 08:51:13;;;;;;;2.30;1.10;;;10.80;1.00;;;;;;5103904;28;20436;-53
2022/04/11 08:53:40;;;;;;;1.10;0.70;;;10.90;1.00;;;;;;5107172;28;20432;-50
2022/04/11 08:56:07;;;;;;;1.50;0.80;;;10.90;1.00;;;;;;5110645;28;20522;-53
2022/04/11 08:58:34;;;;;;;1.30;0.80;;;10.80;1.00;;;;;;5104854;28;20507;-50
2022/04/11 09:01:01;;;;;;;1.00;0.70;;;10.70;1.00;;;;;;5109454;28;20822;-48
2022/04/11 09:03:28;;;;;;;1.00;0.70;;;10.80;1.00;;;;;;5109125;28;20791;-53
2022/04/11 09:06:08;;;;;;;1.10;0.70;;;10.90;1.00;;;;;;5110475;28;20839;-51
2022/04/11 09:08:43;;;;;;;1.55;1.00;;;11.10;1.00;;;;;;5107633;28;20427;-52
2022/04/11 09:11:11;;;;;;;1.20;0.88;;;11.20;1.00;;;;;;5112056;28;20730;-50
2022/04/11 09:13:49;;;;;;;2.30;0.70;;;11.40;1.00;;;;;;5111544;28;20523;-53
2022/04/11 09:16:16;;;;;;;2.20;0.80;;;11.60;1.00;;;;;;5111322;28;20591;-51
2022/04/11 09:18:47;;;;;;;1.55;0.70;;;11.80;1.00;;;;;;5110339;28;20719;-54
2022/04/11 09:21:16;;;;;;;1.90;0.70;;;11.90;1.00;;;;;;5111283;28;20416;-49
2022/04/11 09:23:44;;;;;;;1.05;0.70;;;12.00;1.00;;;;;;5107927;28;20875;-49
2022/04/11 09:26:21;;;;;;;3.60;0.93;;;11.90;1.00;;;;;;5110826;28;20463;-48
2022/04/11 09:29:01;;;;;;;1.00;0.60;;;11.90;1.00;;;;;;5111487;28;20446;-51
2022/04/11 09:31:29;;;;;;;1.38;0.60;;;12.00;1.00;;;;;;5111366;28;20552;-47
2022/04/11 09:33:55;;;;;;;1.92;0.60;;;12.10;1.00;;;;;;5112971;28;20571;-51
2022/04/11 09:36:24;;;;;;;1.50;0.60;;;12.10;1.00;;;;;;5111473;28;20522;-50
2022/04/11 09:38:58;;;;;;;1.45;0.60;;;12.10;1.00;;;;;;5113536;28;20460;-51
2022/04/11 09:41:28;;;;;;;0.90;0.60;;;12.20;1.00;;;;;;5112139;28;20452;-50
2022/04/11 09:43:55;;;;;;;1.00;0.70;;;12.30;1.00;;;;;;5112134;28;20530;-50
2022/04/11 09:46:22;;;;;;;1.60;0.60;;;12.40;1.00;;;;;;5071178;28;20431;-52
2022/04/11 09:48:51;;;;;;;2.70;0.40;;;12.30;1.00;;;;;;5072668;28;20435;-50
2022/04/11 09:51:18;;;;;;;1.20;0.60;;;12.30;1.00;;;;;;5075027;28;20594;-52
2022/04/11 09:53:47;;;;;;;0.80;0.50;;;12.50;1.00;;;;;;5071301;28;20523;-51
2022/04/11 09:56:14;;;;;;;1.45;0.80;;;12.70;1.00;;;;;;5072030;28;20423;-48
2022/04/11 09:58:42;;;;;;;0.90;0.50;;;12.70;1.00;;;;;;5070228;28;20435;-53
2022/04/11 10:01:10;;;;;;;0.82;0.60;;;12.90;1.00;;;;;;5069365;28;20431;-50
2022/04/11 10:03:37;;;;;;;2.10;0.50;;;13.20;1.00;;;;;;5071509;28;20463;-54
2022/04/11 10:06:05;;;;;;;0.98;0.60;;;13.60;1.00;;;;;;5074146;28;20534;-47
2022/04/11 10:08:32;;;;;;;2.30;1.50;;;13.80;1.00;;;;;;5073945;28;20850;-49
2022/04/11 10:11:01;;;;;;;0.88;0.68;;;13.90;1.00;;;;;;5074117;28;20430;-49
2022/04/11 10:13:29;;;;;;;1.20;0.60;;;14.00;1.00;;;;;;5072171;28;20431;-50
2022/04/11 10:15:56;;;;;;;1.00;0.50;;;14.10;1.00;;;;;;5072966;28;20430;-47
2022/04/11 10:18:26;;;;;;;1.00;0.50;;;14.00;1.00;;;;;;5071427;28;20435;-50
2022/04/11 10:20:57;;;;;;;0.88;0.50;;;14.10;1.00;;;;;;5070034;28;20427;-48
2022/04/11 10:23:31;;;;;;;1.40;0.50;;;14.10;1.00;;;;;;5053240;28;20435;-51
2022/04/11 10:26:00;;;;;;;0.90;0.60;;;14.40;1.00;;;;;;5063533;28;20439;-49
2022/04/11 10:28:29;;;;;;;1.30;0.50;;;14.60;1.00;;;;;;5073731;28;20446;-48
2022/04/11 10:31:10;;;;;;;1.13;0.60;;;14.60;1.00;;;;;;5071298;28;20514;-48
2022/04/11 10:33:44;;;;;;;1.08;0.60;;;14.80;1.00;;;;;;5073089;28;20433;-51
2022/04/11 10:36:35;;;;;;;1.40;0.50;;;14.40;1.00;;;;;;5070744;28;20462;-49
2022/04/11 10:39:25;;;;;;;0.90;0.50;;;14.50;1.00;;;;;;5070952;28;20431;-52
2022/04/11 10:42:09;;;;;;;1.10;0.60;;;14.80;1.00;;;;;;5071324;28;20770;-50
2022/04/11 10:44:39;;;;;;;1.10;0.70;;;15.00;1.00;;;;;;5081342;28;20517;-51
2022/04/11 10:47:31;;;;;;;0.90;0.60;;;15.00;1.00;;;;;;5112700;28;20512;-51
2022/04/11 10:50:20;;;;;;;1.90;0.50;;;15.20;1.00;;;;;;5111732;28;20465;-48
2022/04/11 10:52:53;;;;;;;1.50;0.70;;;15.20;1.00;;;;;;5112837;28;20422;-50
2022/04/11 10:55:22;;;;;;;1.50;0.60;;;15.40;1.00;;;;;;5111767;28;20527;-50
2022/04/11 10:57:51;;;;;;;1.60;0.60;;;15.40;1.00;;;;;;5110349;28;20456;-49
2022/04/11 11:00:20;;;;;;;1.20;0.60;;;15.50;1.00;;;;;;5110670;28;20416;-52
2022/04/11 11:03:09;;;;;;;0.70;0.50;;;15.80;1.00;;;;;;5111774;28;20536;-50
2022/04/11 11:05:39;;;;;;;1.05;0.63;;;15.90;1.00;;;;;;5108970;28;20870;-52
2022/04/11 11:08:36;;;;;;;1.08;0.60;;;15.80;1.00;;;;;;5107599;28;20432;-51
2022/04/11 11:11:22;;;;;;;0.70;0.50;;;16.00;1.00;;;;;;5031456;28;20415;-50
2022/04/11 11:13:49;;;;;;;0.95;0.60;;;16.00;1.00;;;;;;5098189;28;20467;-52
2022/04/11 11:16:34;;;;;;;1.40;0.60;;;16.00;1.00;;;;;;5111834;28;20455;-49
2022/04/11 11:19:12;;;;;;;1.98;0.60;;;15.90;1.00;;;;;;5115730;28;20524;-47
2022/04/11 11:21:57;;;;;;;0.98;0.60;;;16.00;1.00;;;;;;5115781;28;20791;-50
2022/04/11 11:24:24;;;;;;;0.80;0.50;;;15.90;1.00;;;;;;5116405;28;20428;-52
2022/04/11 11:26:54;;;;;;;0.73;0.50;;;15.90;1.00;;;;;;5110883;28;20622;-49
2022/04/11 11:29:22;;;;;;;0.90;0.60;;;16.00;1.00;;;;;;5107977;28;20507;-49
2022/04/11 11:31:52;;;;;;;0.82;0.50;;;16.30;1.00;;;;;;5105765;28;20530;-49
2022/04/11 11:34:21;;;;;;;1.50;0.60;;;16.30;1.00;;;;;;5106742;28;20866;-46
2022/04/11 11:36:49;;;;;;;0.90;0.60;;;16.60;1.00;;;;;;5109754;28;20413;-50
2022/04/11 11:39:17;;;;;;;1.00;0.50;;;16.50;1.00;;;;;;5108608;28;20436;-52
2022/04/11 11:41:44;;;;;;;0.70;0.50;;;16.40;1.00;;;;;;5092697;28;20425;-50
2022/04/11 11:44:11;;;;;;;0.80;0.50;;;16.80;1.00;;;;;;5101343;28;20444;-53
2022/04/11 11:46:56;;;;;;;1.73;0.50;;;17.20;1.00;;;;;;5110989;28;20526;-53
2022/04/11 11:49:24;;;;;;;1.17;0.70;;;17.40;1.00;;;;;;5111494;28;20427;-52
2022/04/11 11:51:52;;;;;;;1.08;0.60;;;17.40;1.00;;;;;;5112409;28;20511;-49
2022/04/11 11:54:34;;;;;;;1.00;0.50;;;17.70;1.00;;;;;;5112573;28;20514;-49
2022/04/11 11:57:01;;;;;;;0.90;0.60;;;18.10;1.00;;;;;;5111798;28;20420;-50
2022/04/11 11:59:28;;;;;;;1.70;0.40;;;18.10;1.00;;;;;;5112308;28;21023;-50
2022/04/11 12:04:37;;;;;;;4.50;2.28;;;18.20;1.00;;;;;;5113736;28;20438;-51
2022/04/11 12:07:05;;;;;;;2.50;1.20;;;17.10;1.00;;;;;;5112793;28;20878;-47
2022/04/11 12:09:36;;;;;;;0.90;0.60;;;17.70;1.00;;;;;;5115021;28;20484;-52
2022/04/11 12:12:05;;;;;;;1.08;0.50;;;18.00;1.00;;;;;;5111149;28;20428;-49
2022/04/11 12:14:52;;;;;;;0.90;0.50;;;17.60;1.00;;;;;;5112369;28;20748;-51
2022/04/11 12:17:20;;;;;;;1.00;0.50;;;17.90;1.00;;;;;;5111458;28;20775;-51
2022/04/11 12:19:47;;;;;;;0.70;0.50;;;17.60;1.00;;;;;;5110758;27;20511;-52
2022/04/11 12:22:16;;;;;;;1.00;0.60;;;17.40;1.00;;;;;;5090554;28;20512;-55
2022/04/11 12:24:43;;;;;;;1.00;0.70;;;17.40;1.00;;;;;;5099905;28;20844;-52
2022/04/11 12:27:14;;;;;;;1.60;0.60;;;17.60;1.00;;;;;;5111676;28;20462;-51
2022/04/11 12:29:42;;;;;;;1.00;0.60;;;17.50;1.00;;;;;;5098285;28;20440;-55
2022/04/11 12:32:14;;;;;;;1.00;0.70;;;17.30;1.00;;;;;;5114177;28;20432;-54
2022/04/11 12:34:45;;;;;;;0.80;0.60;;;17.00;1.00;;;;;;5114085;28;20459;-58
2022/04/11 12:37:13;;;;;;;0.70;0.50;;;17.40;1.00;;;;;;5113209;28;20458;-56
2022/04/11 12:39:53;;;;;;;1.10;0.60;;;17.60;1.00;;;;;;5111002;28;20480;-57
2022/04/11 12:42:21;;;;;;;0.80;0.50;;;17.80;1.00;;;;;;5113381;28;20412;-53
2022/04/11 12:44:48;;;;;;;1.40;0.70;;;18.10;1.00;;;;;;5112433;28;20416;-56
2022/04/11 12:47:15;;;;;;;1.17;0.60;;;17.90;1.00;;;;;;5111464;27;20423;-56
2022/04/11 12:49:46;;;;;;;3.30;1.20;;;18.00;1.00;;;;;;5110924;28;20459;-56
2022/04/11 12:52:14;;;;;;;0.80;0.60;;;17.70;1.00;;;;;;5111391;28;20520;-57
2022/04/11 12:54:43;;;;;;;1.10;0.60;;;17.90;1.00;;;;;;5112580;28;20527;-56
2022/04/11 12:57:12;;;;;;;1.10;0.60;;;18.00;1.00;;;;;;5111197;28;20439;-56
2022/04/11 12:59:40;;;;;;;1.60;0.80;;;18.20;1.00;;;;;;5112477;28;20446;-51
2022/04/11 13:02:08;;;;;;;0.80;0.60;;;18.00;1.00;;;;;;5106221;28;20438;-56
2022/04/11 13:04:37;;;;;;;1.00;0.70;;;17.80;1.00;;;;;;5107947;28;20935;-54
2022/04/11 13:07:06;;;;;;;0.80;0.60;;;17.80;1.00;;;;;;5111404;28;20460;-55
2022/04/11 13:09:33;;;;;;;1.00;0.60;;;17.60;1.00;;;;;;5112078;28;20420;-56
2022/04/11 13:12:01;;;;;;;1.20;0.60;;;17.80;1.00;;;;;;5112001;28;20506;-56